createdAt,value
2022-11-20T00:50:50.597Z,-0.40
2022-11-20T01:56:17.399Z,-0.70
2022-11-20T01:59:45.071Z,-0.70
2022-11-20T08:14:49.122Z,-0.60
2022-11-20T08:20:30.503Z,-0.50
2022-11-20T08:23:18.141Z,-0.40
2022-11-20T08:26:24.727Z,-0.40
2022-11-20T08:29:00.766Z,-0.30
2022-11-20T08:31:33.448Z,-0.20
2022-11-20T08:34:12.916Z,-0.20
2022-11-20T08:36:50.951Z,-0.10
2022-11-20T08:39:32.608Z,-0.10
2022-11-20T08:42:12.893Z,0.00
2022-11-20T08:44:52.417Z,0.00
2022-11-20T08:47:26.999Z,0.10
2022-11-20T08:49:57.596Z,0.10
2022-11-20T08:52:53.753Z,0.10
2022-11-20T08:55:31.837Z,0.20
2022-11-20T08:58:14.964Z,0.30
2022-11-20T09:00:46.652Z,0.30
2022-11-20T09:03:29.979Z,0.40
2022-11-20T09:06:10.956Z,0.50
2022-11-20T09:08:52.781Z,0.50
2022-11-20T09:11:32.515Z,0.60
2022-11-20T09:14:10.498Z,0.70
2022-11-20T09:16:42.079Z,0.80
2022-11-20T09:19:35.809Z,0.90
2022-11-20T09:22:12.708Z,0.90
2022-11-20T09:24:51.436Z,1.00
2022-11-20T09:27:26.341Z,1.00
2022-11-20T09:30:01.946Z,1.00
2022-11-20T09:32:34.994Z,1.00
2022-11-20T09:35:13.801Z,1.10
2022-11-20T09:37:54.461Z,1.10
2022-11-20T09:40:29.191Z,1.10
2022-11-20T09:42:59.588Z,1.10
2022-11-20T09:45:37.657Z,1.20
2022-11-20T09:48:31.556Z,1.20
2022-11-20T09:51:13.864Z,1.30
2022-11-20T09:53:47.809Z,1.40
2022-11-20T09:56:30.869Z,1.40
2022-11-20T09:59:06.530Z,1.50
2022-11-20T10:01:42.630Z,1.50
2022-11-20T10:04:19.272Z,1.60
2022-11-20T10:07:17.181Z,1.70
2022-11-20T10:09:54.271Z,1.70
2022-11-20T10:12:26.105Z,1.80
2022-11-20T10:15:45.128Z,1.80
2022-11-20T10:18:59.667Z,1.90
2022-11-20T10:22:16.755Z,2.00
2022-11-20T10:24:51.152Z,2.00
2022-11-20T10:27:40.583Z,2.00
2022-11-20T10:30:18.345Z,2.00
2022-11-20T10:32:52.274Z,2.10
2022-11-20T10:35:26.777Z,2.10
2022-11-20T10:38:06.719Z,2.10
2022-11-20T10:40:42.417Z,2.10
2022-11-20T10:43:14.574Z,2.10
2022-11-20T10:45:56.281Z,2.20
2022-11-20T10:48:31.478Z,2.20
2022-11-20T10:51:14.501Z,2.20
2022-11-20T10:53:59.261Z,2.20
2022-11-20T10:56:33.229Z,2.20
2022-11-20T10:59:36.331Z,2.20
2022-11-20T11:02:25.090Z,2.20
2022-11-20T11:05:14.116Z,2.30
2022-11-20T11:07:43.517Z,2.30
2022-11-20T11:10:49.429Z,2.30
2022-11-20T11:13:34.186Z,2.40
2022-11-20T11:17:37.562Z,2.40
2022-11-20T11:20:35.950Z,2.50
2022-11-20T11:23:47.895Z,2.50
2022-11-20T11:26:53.320Z,2.60
2022-11-20T11:29:54.166Z,2.70
2022-11-20T11:32:38.671Z,2.70
2022-11-20T11:35:32.474Z,2.80
2022-11-20T11:38:58.788Z,2.90
2022-11-20T11:59:09.234Z,3.00
2022-11-20T12:01:44.806Z,3.10
2022-11-20T12:08:01.664Z,3.20
2022-11-20T12:10:45.608Z,3.20
2022-11-20T12:13:28.659Z,3.30
2022-11-20T12:16:14.339Z,3.30
2022-11-20T12:18:45.634Z,3.40
2022-11-20T12:21:33.387Z,3.40
2022-11-20T12:48:00.800Z,3.70
2022-11-20T15:03:01.974Z,3.90
2022-11-20T15:05:48.901Z,3.80
2022-11-20T15:08:17.430Z,3.80
2022-11-20T15:10:51.063Z,3.80
2022-11-20T15:13:22.830Z,3.80
2022-11-20T15:15:51.676Z,3.80
2022-11-20T15:18:27.297Z,3.80
2022-11-20T15:20:59.998Z,3.90
2022-11-20T15:23:28.472Z,3.80
2022-11-20T15:25:56.655Z,3.90
2022-11-20T15:28:28.564Z,3.90
2022-11-20T15:30:57.510Z,3.90
2022-11-20T15:33:33.633Z,3.90
2022-11-20T15:36:21.823Z,3.90
2022-11-20T15:38:53.378Z,4.00
2022-11-20T15:42:14.261Z,4.00
2022-11-20T15:52:40.201Z,4.00
2022-11-20T15:56:07.290Z,4.00
2022-11-20T16:07:24.233Z,4.00
2022-11-20T16:10:47.635Z,4.00
2022-11-20T16:14:23.696Z,4.10
2022-11-20T16:21:14.979Z,4.10
2022-11-20T16:24:13.226Z,4.10
2022-11-20T16:27:10.328Z,4.10
2022-11-20T16:29:41.906Z,4.20
2022-11-20T16:32:14.114Z,4.20
2022-11-20T16:34:42.822Z,4.30
2022-11-20T16:38:11.512Z,4.30
2022-11-20T16:40:41.854Z,4.40
2022-11-20T16:43:11.747Z,4.30
2022-11-20T16:45:45.400Z,4.30
2022-11-20T16:48:17.230Z,4.30
2022-11-20T16:50:52.217Z,4.30
2022-11-20T16:53:23.909Z,4.40
2022-11-20T16:55:52.154Z,4.40
2022-11-20T16:58:20.307Z,4.40
2022-11-20T17:00:51.828Z,4.50
2022-11-20T17:03:23.401Z,4.50
2022-11-20T17:05:54.064Z,4.60
2022-11-20T17:08:22.274Z,4.50
2022-11-20T17:10:50.395Z,4.50
2022-11-20T17:13:18.482Z,4.60
2022-11-20T17:15:46.692Z,4.60
2022-11-20T17:18:16.367Z,4.60
2022-11-20T17:20:44.500Z,4.70
2022-11-20T17:23:12.768Z,4.60
2022-11-20T17:25:42.287Z,4.60
2022-11-20T17:28:11.074Z,4.60
2022-11-20T17:30:39.438Z,4.60
2022-11-20T17:33:07.647Z,4.60
2022-11-20T17:35:39.001Z,4.60
2022-11-20T17:38:07.405Z,4.70
2022-11-20T17:40:35.760Z,4.70
2022-11-20T17:43:06.504Z,4.70
2022-11-20T17:45:38.199Z,4.70
2022-11-20T17:48:07.148Z,4.70
2022-11-20T17:50:37.175Z,4.70
2022-11-20T17:53:18.143Z,4.70
2022-11-20T17:56:19.892Z,4.70
2022-11-20T17:58:48.222Z,4.70
2022-11-20T18:01:16.581Z,4.70
2022-11-20T18:03:44.918Z,4.70
2022-11-20T18:06:13.879Z,4.70
2022-11-20T18:08:43.549Z,4.70
2022-11-20T18:11:44.472Z,4.70
2022-11-20T18:14:32.671Z,4.70
2022-11-20T18:17:02.205Z,4.70
2022-11-20T18:19:32.656Z,4.80
2022-11-20T18:22:04.142Z,4.80
2022-11-20T18:24:36.782Z,4.80
2022-11-20T18:27:05.713Z,4.80
2022-11-20T18:29:33.950Z,4.80
2022-11-20T18:32:02.392Z,4.90
2022-11-20T18:34:30.669Z,4.80
2022-11-20T18:36:59.070Z,4.80
2022-11-20T18:39:27.228Z,4.90
2022-11-20T18:42:17.278Z,4.90
2022-11-20T18:44:57.018Z,4.90
2022-11-20T18:47:26.288Z,4.90
2022-11-20T18:49:54.988Z,4.90
2022-11-20T18:52:24.331Z,4.90
2022-11-20T18:55:01.631Z,4.90
2022-11-20T18:57:37.562Z,4.90
2022-11-20T19:00:09.212Z,4.90
2022-11-20T19:02:43.085Z,4.90
2022-11-20T19:05:12.075Z,4.90
2022-11-20T19:07:42.185Z,4.90
2022-11-20T19:10:11.897Z,4.90
2022-11-20T19:12:42.139Z,4.80
2022-11-20T19:15:11.637Z,4.80
2022-11-20T19:17:48.245Z,4.80
2022-11-20T19:20:16.633Z,4.90
2022-11-20T19:22:45.058Z,4.80
2022-11-20T19:25:13.362Z,4.90
2022-11-20T19:27:56.824Z,4.90
2022-11-20T19:30:25.187Z,4.90
2022-11-20T19:32:59.751Z,4.90
2022-11-20T19:35:30.649Z,4.90
2022-11-20T19:38:02.686Z,4.90
2022-11-20T19:40:38.334Z,4.90
2022-11-20T19:43:11.081Z,4.90
2022-11-20T19:45:42.687Z,4.90
2022-11-20T19:48:11.058Z,5.00
2022-11-20T19:50:39.353Z,5.00
2022-11-20T19:53:11.565Z,5.00
2022-11-20T19:55:40.196Z,5.10
2022-11-20T19:58:08.408Z,5.10
2022-11-20T20:00:45.324Z,5.10
2022-11-20T20:03:16.568Z,5.10
2022-11-20T20:05:45.258Z,5.10
2022-11-20T20:08:16.930Z,5.10
2022-11-20T20:10:45.361Z,5.00
2022-11-20T20:13:14.116Z,5.10
2022-11-20T20:15:43.921Z,5.10
2022-11-20T20:18:12.273Z,5.00
2022-11-20T20:20:40.655Z,5.00
2022-11-20T20:23:08.823Z,5.10
2022-11-20T20:25:38.043Z,5.10
2022-11-20T20:28:06.503Z,5.10
2022-11-20T20:30:34.779Z,5.10
2022-11-20T20:33:04.491Z,5.10
2022-11-20T20:35:35.747Z,5.10
2022-11-20T20:38:04.030Z,5.10
2022-11-20T20:40:32.624Z,5.20
2022-11-20T20:43:00.873Z,5.20
2022-11-20T20:45:29.065Z,5.20
2022-11-20T20:47:57.543Z,5.20
2022-11-20T20:50:27.214Z,5.20
2022-11-20T20:52:56.183Z,5.20
2022-11-20T20:55:24.342Z,5.20
2022-11-20T20:57:53.689Z,5.20
2022-11-20T21:00:21.930Z,5.20
2022-11-20T21:02:51.512Z,5.20
2022-11-20T21:05:19.795Z,5.20
2022-11-20T21:08:11.823Z,5.10
2022-11-20T21:10:39.956Z,5.20
2022-11-20T21:13:08.128Z,5.10
2022-11-20T21:15:39.728Z,5.10
2022-11-20T21:18:07.988Z,5.10
2022-11-20T21:20:54.044Z,5.10
2022-11-20T21:23:27.802Z,5.10
2022-11-20T21:25:56.401Z,5.10
2022-11-20T21:28:24.636Z,5.10
2022-11-20T21:30:52.990Z,5.10
2022-11-20T21:33:21.208Z,5.20
2022-11-20T21:35:49.461Z,5.10
2022-11-20T21:38:17.637Z,5.10
2022-11-20T21:40:47.363Z,5.10
2022-11-20T21:43:16.083Z,5.10
2022-11-20T21:45:47.213Z,5.10
2022-11-20T21:48:15.413Z,5.20
2022-11-20T21:50:43.585Z,5.10
2022-11-20T21:53:11.873Z,5.10
2022-11-20T21:55:40.073Z,5.10
2022-11-20T21:58:09.578Z,5.10
2022-11-20T22:00:37.698Z,5.20
2022-11-20T22:03:06.338Z,5.20
2022-11-20T22:05:34.454Z,5.20
2022-11-20T22:08:15.033Z,5.20
2022-11-20T22:10:43.316Z,5.10
2022-11-20T22:13:30.265Z,5.10
2022-11-20T22:16:02.927Z,5.00
2022-11-20T22:18:31.116Z,5.00
2022-11-20T22:21:04.202Z,4.90
2022-11-20T22:23:32.419Z,4.90
2022-11-20T22:26:04.896Z,4.90
2022-11-20T22:28:34.593Z,4.90
2022-11-20T22:31:03.244Z,4.80
2022-11-20T22:33:32.051Z,4.80
2022-11-20T22:36:05.784Z,4.80
2022-11-20T22:38:38.930Z,4.90
2022-11-20T22:41:08.399Z,4.80
2022-11-20T22:43:39.092Z,4.80
2022-11-20T22:46:14.412Z,4.80
2022-11-20T22:48:43.421Z,4.80
2022-11-20T22:51:12.891Z,4.80
2022-11-20T22:53:41.235Z,4.90
2022-11-20T22:56:09.722Z,4.80
2022-11-20T22:58:41.943Z,4.80
2022-11-20T23:01:11.168Z,4.90
2022-11-20T23:03:39.524Z,4.80
2022-11-20T23:06:07.891Z,4.80
2022-11-20T23:08:36.183Z,4.80
2022-11-20T23:11:05.448Z,4.80
2022-11-20T23:13:33.660Z,4.80
2022-11-20T23:16:06.545Z,4.80
2022-11-20T23:18:35.183Z,4.80
2022-11-20T23:21:06.181Z,4.80
2022-11-20T23:23:34.317Z,4.80
2022-11-20T23:26:03.322Z,4.80
2022-11-20T23:28:31.411Z,4.80
2022-11-20T23:30:59.665Z,4.80
2022-11-20T23:33:29.246Z,4.70
2022-11-20T23:35:57.704Z,4.80
2022-11-20T23:38:25.901Z,4.80
2022-11-20T23:40:54.340Z,4.80
2022-11-20T23:43:22.987Z,4.80
2022-11-20T23:45:51.977Z,4.90
2022-11-20T23:48:20.478Z,4.90
2022-11-20T23:50:53.207Z,4.90
2022-11-20T23:53:22.159Z,4.90
2022-11-20T23:55:51.229Z,4.90
2022-11-20T23:58:19.718Z,4.90
